createdAt,value
2022-11-10T00:05:12.685Z,12.30
2022-11-10T00:10:33.349Z,12.40
2022-11-10T00:16:12.644Z,12.40
2022-11-10T00:21:33.050Z,12.40
2022-11-10T00:26:54.327Z,12.40
2022-11-10T00:32:14.567Z,12.40
2022-11-10T00:37:35.392Z,12.40
2022-11-10T00:42:55.624Z,12.50
2022-11-10T00:48:16.080Z,12.60
2022-11-10T00:53:36.605Z,12.60
2022-11-10T00:58:57.108Z,12.70
2022-11-10T01:04:17.438Z,12.80
2022-11-10T01:09:38.154Z,12.80
2022-11-10T01:14:58.473Z,12.90
2022-11-10T01:20:19.112Z,12.80
2022-11-10T01:25:39.549Z,12.90
2022-11-10T01:31:01.751Z,13.00
2022-11-10T01:36:22.245Z,12.90
2022-11-10T01:41:42.520Z,12.90
2022-11-10T01:47:03.139Z,12.80
2022-11-10T01:52:23.535Z,12.90
2022-11-10T01:57:45.239Z,12.90
2022-11-10T02:03:29.034Z,12.80
2022-11-10T02:08:51.014Z,12.70
2022-11-10T02:14:13.112Z,12.70
2022-11-10T02:19:41.501Z,12.70
2022-11-10T02:25:02.139Z,12.50
2022-11-10T02:30:27.362Z,12.40
2022-11-10T02:35:48.352Z,12.40
2022-11-10T02:41:08.649Z,12.50
2022-11-10T02:46:29.099Z,12.50
2022-11-10T02:51:49.381Z,12.50
2022-11-10T02:57:09.783Z,12.60
2022-11-10T03:02:32.389Z,12.50
2022-11-10T03:07:57.506Z,12.60
2022-11-10T03:13:18.579Z,12.60
2022-11-10T03:18:39.084Z,12.70
2022-11-10T03:23:59.553Z,12.60
2022-11-10T03:29:20.109Z,12.60
2022-11-10T03:34:40.725Z,12.60
2022-11-10T03:40:01.279Z,12.50
2022-11-10T03:45:21.678Z,12.50
2022-11-10T03:50:42.432Z,12.40
2022-11-10T03:56:05.090Z,12.30
2022-11-10T04:01:25.605Z,12.30
2022-11-10T04:07:04.587Z,12.30
2022-11-10T04:12:43.380Z,12.20
2022-11-10T04:18:22.035Z,12.20
2022-11-10T04:23:42.052Z,12.10
2022-11-10T04:29:04.749Z,12.10
2022-11-10T04:34:24.931Z,12.10
2022-11-10T04:39:46.712Z,12.00
2022-11-10T04:45:07.661Z,11.80
2022-11-10T04:50:27.824Z,11.80
2022-11-10T04:55:48.889Z,11.70
2022-11-10T05:01:13.785Z,11.60
2022-11-10T05:06:34.091Z,11.60
2022-11-10T05:11:54.308Z,11.50
2022-11-10T05:17:14.833Z,11.50
2022-11-10T05:22:35.165Z,11.40
2022-11-10T05:27:55.665Z,11.40
2022-11-10T05:33:16.378Z,11.30
2022-11-10T05:38:42.897Z,11.30
2022-11-10T05:44:03.913Z,11.30
2022-11-10T05:49:24.414Z,11.20
2022-11-10T05:54:44.956Z,11.20
2022-11-10T06:00:06.414Z,11.10
2022-11-10T06:05:31.051Z,11.20
2022-11-10T06:10:52.023Z,11.10
2022-11-10T06:16:12.489Z,11.00
2022-11-10T06:21:32.857Z,11.00
2022-11-10T06:26:53.170Z,10.90
2022-11-10T06:32:13.711Z,10.90
2022-11-10T06:37:33.953Z,10.90
2022-11-10T06:42:54.500Z,10.90
2022-11-10T06:48:14.910Z,10.90
2022-11-10T06:53:35.413Z,10.90
2022-11-10T06:58:55.774Z,10.90
2022-11-10T07:04:20.838Z,10.90
2022-11-10T07:09:42.077Z,10.90
2022-11-10T07:15:02.293Z,10.90
2022-11-10T07:20:22.960Z,11.00
2022-11-10T07:25:43.201Z,11.20
2022-11-10T07:31:03.903Z,11.30
2022-11-10T07:36:24.306Z,11.30
2022-11-10T07:41:47.631Z,11.30
2022-11-10T07:47:10.498Z,11.40
2022-11-10T07:52:30.791Z,11.40
2022-11-10T07:57:51.139Z,11.40
2022-11-10T08:03:22.663Z,11.40
2022-11-10T08:08:45.536Z,11.50
2022-11-10T08:14:05.622Z,11.60
2022-11-10T08:19:26.213Z,11.60
2022-11-10T08:24:47.194Z,11.60
2022-11-10T08:30:08.245Z,11.60
2022-11-10T08:35:30.807Z,11.80
2022-11-10T08:40:51.217Z,11.80
2022-11-10T08:46:11.489Z,12.00
2022-11-10T08:51:37.835Z,12.00
2022-11-10T08:56:59.635Z,12.10
2022-11-10T09:02:20.166Z,12.20
2022-11-10T09:07:45.369Z,12.20
2022-11-10T09:13:06.597Z,12.30
2022-11-10T09:18:26.640Z,12.50
2022-11-10T09:23:48.367Z,12.60
2022-11-10T09:29:08.542Z,12.70
2022-11-10T09:34:29.083Z,12.70
2022-11-10T09:39:49.696Z,12.80
2022-11-10T09:45:20.984Z,12.70
2022-11-10T09:51:08.237Z,12.90
2022-11-10T09:56:36.633Z,13.00
2022-11-10T10:02:03.336Z,13.00
2022-11-10T10:07:37.755Z,13.10
2022-11-10T10:13:21.357Z,13.20
2022-11-10T10:18:48.105Z,13.30
2022-11-10T10:24:19.820Z,13.20
2022-11-10T10:29:49.167Z,13.20
2022-11-10T10:35:14.771Z,13.30
2022-11-10T10:40:35.191Z,13.40
2022-11-10T10:46:07.496Z,13.50
2022-11-10T10:51:29.873Z,13.60
2022-11-10T10:56:50.491Z,13.70
2022-11-10T11:02:29.937Z,13.80
2022-11-10T11:07:58.778Z,13.70
2022-11-10T11:13:27.542Z,13.90
2022-11-10T11:18:47.856Z,14.00
2022-11-10T11:24:21.392Z,14.00
2022-11-10T11:30:12.186Z,14.10
2022-11-10T11:35:49.537Z,14.20
2022-11-10T11:41:37.247Z,14.20
2022-11-10T11:47:37.919Z,14.30
2022-11-10T11:53:29.262Z,14.50
2022-11-10T11:59:14.445Z,14.60
2022-11-10T12:04:40.689Z,14.50
2022-11-10T12:10:25.528Z,14.50
2022-11-10T12:16:16.933Z,14.50
2022-11-10T12:21:49.868Z,14.40
2022-11-10T12:27:24.147Z,14.30
2022-11-10T12:33:03.470Z,14.40
2022-11-10T12:38:40.315Z,14.60
2022-11-10T12:44:15.984Z,14.70
2022-11-10T12:49:38.970Z,14.80
2022-11-10T12:55:00.611Z,15.00
2022-11-10T13:00:28.669Z,15.00
2022-11-10T13:05:55.870Z,14.90
2022-11-10T13:11:15.918Z,14.90
2022-11-10T13:16:40.467Z,15.00
2022-11-10T13:22:01.147Z,15.00
2022-11-10T13:27:46.473Z,15.30
2022-11-10T13:33:27.760Z,15.70
2022-11-10T13:38:49.070Z,15.80
2022-11-10T13:44:35.131Z,15.80
2022-11-10T13:50:14.278Z,15.50
2022-11-10T13:56:02.052Z,15.40
2022-11-10T14:01:30.257Z,15.20
2022-11-10T14:06:54.747Z,15.00
2022-11-10T14:12:37.389Z,15.00
2022-11-10T14:17:58.849Z,15.10
2022-11-10T14:23:29.228Z,15.00
2022-11-10T14:28:49.278Z,14.90
2022-11-10T14:34:15.512Z,14.80
2022-11-10T14:39:35.777Z,14.60
2022-11-10T14:45:28.749Z,14.50
2022-11-10T14:50:49.846Z,14.30
2022-11-10T14:56:22.070Z,14.30
2022-11-10T15:01:50.627Z,14.30
2022-11-10T15:07:11.413Z,14.30
2022-11-10T15:12:31.921Z,14.30
2022-11-10T15:17:52.570Z,14.20
2022-11-10T15:23:33.383Z,14.10
2022-11-10T15:28:54.614Z,14.00
2022-11-10T15:34:33.404Z,13.90
2022-11-10T15:40:14.146Z,13.80
2022-11-10T15:45:34.835Z,13.70
2022-11-10T15:50:58.483Z,13.60
2022-11-10T15:56:20.669Z,13.50
2022-11-10T16:01:40.892Z,13.40
2022-11-10T16:07:01.314Z,13.30
2022-11-10T16:12:23.008Z,13.20
2022-11-10T16:17:43.148Z,13.10
2022-11-10T16:23:03.736Z,13.00
2022-11-10T16:28:27.216Z,12.80
2022-11-10T16:33:48.017Z,12.70
2022-11-10T16:39:13.295Z,12.70
2022-11-10T16:44:33.441Z,12.60
2022-11-10T16:49:54.025Z,12.50
2022-11-10T16:55:14.480Z,12.50
2022-11-10T17:00:36.098Z,12.40
2022-11-10T17:05:56.729Z,12.20
2022-11-10T17:11:17.350Z,12.20
2022-11-10T17:16:40.001Z,12.30
2022-11-10T17:22:00.573Z,12.30
2022-11-10T17:27:20.746Z,12.20
2022-11-10T17:33:03.750Z,12.20
2022-11-10T17:38:29.648Z,12.30
2022-11-10T17:43:49.913Z,12.40
2022-11-10T17:49:10.458Z,12.50
2022-11-10T17:54:30.959Z,12.60
2022-11-10T17:59:51.419Z,12.70
2022-11-10T18:05:14.109Z,12.70
2022-11-10T18:10:34.390Z,12.80
2022-11-10T18:15:58.000Z,12.70
2022-11-10T18:21:18.397Z,12.80
2022-11-10T18:26:38.680Z,12.80
2022-11-10T18:31:59.117Z,12.90
2022-11-10T18:37:20.864Z,12.90
2022-11-10T18:42:41.219Z,12.90
2022-11-10T18:48:03.425Z,12.90
2022-11-10T18:53:23.857Z,13.00
2022-11-10T18:58:44.855Z,12.90
2022-11-10T19:04:05.142Z,12.90
2022-11-10T19:09:25.576Z,12.90
2022-11-10T19:14:46.071Z,12.90
2022-11-10T19:20:07.236Z,12.90
2022-11-10T19:25:27.670Z,12.80
2022-11-10T19:30:48.247Z,12.80
2022-11-10T19:36:14.698Z,12.80
2022-11-10T19:41:36.826Z,12.80
2022-11-10T19:46:57.370Z,12.80
2022-11-10T19:52:17.521Z,12.80
2022-11-10T19:57:37.901Z,12.70
2022-11-10T20:02:58.233Z,12.70
2022-11-10T20:08:18.756Z,12.70
2022-11-10T20:13:39.192Z,12.70
2022-11-10T20:19:00.281Z,12.70
2022-11-10T20:24:20.476Z,12.70
2022-11-10T20:29:43.185Z,12.60
2022-11-10T20:35:03.510Z,12.60
2022-11-10T20:40:43.525Z,12.60
2022-11-10T20:46:07.137Z,12.60
2022-11-10T20:51:27.872Z,12.60
2022-11-10T20:56:48.104Z,12.50
2022-11-10T21:02:11.573Z,12.50
2022-11-10T21:07:31.867Z,12.50
2022-11-10T21:12:52.473Z,12.60
2022-11-10T21:18:13.453Z,12.50
2022-11-10T21:23:33.830Z,12.50
2022-11-10T21:28:54.276Z,12.50
2022-11-10T21:34:14.761Z,12.50
2022-11-10T21:39:35.156Z,12.50
2022-11-10T21:44:55.670Z,12.30
2022-11-10T21:50:17.285Z,12.20
2022-11-10T21:55:37.497Z,12.00
2022-11-10T22:01:12.970Z,11.90
2022-11-10T22:06:51.837Z,11.80
2022-11-10T22:12:31.812Z,11.60
2022-11-10T22:18:11.135Z,11.50
2022-11-10T22:23:50.622Z,11.50
2022-11-10T22:29:11.273Z,11.40
2022-11-10T22:34:31.409Z,11.30
2022-11-10T22:40:10.204Z,11.30
2022-11-10T22:45:31.255Z,11.20
2022-11-10T22:50:58.717Z,11.10
2022-11-10T22:56:19.430Z,11.10
2022-11-10T23:01:41.495Z,10.90
2022-11-10T23:07:01.851Z,10.90
2022-11-10T23:12:22.304Z,10.80
2022-11-10T23:17:42.589Z,10.60
2022-11-10T23:23:03.146Z,10.60
2022-11-10T23:28:23.470Z,10.50
2022-11-10T23:33:45.041Z,10.40
2022-11-10T23:39:05.071Z,10.40
2022-11-10T23:44:25.452Z,10.30
2022-11-10T23:49:45.968Z,10.20
2022-11-10T23:55:06.719Z,10.20
